createdAt,value
2018-04-14T00:00:10.539Z,98.40
2018-04-14T00:01:10.540Z,92.20
2018-04-14T00:02:10.528Z,94.50
2018-04-14T00:03:10.520Z,96.10
2018-04-14T00:04:10.517Z,93.20
2018-04-14T00:05:10.505Z,93.60
2018-04-14T00:06:10.496Z,93.00
2018-04-14T00:07:10.492Z,95.30
2018-04-14T00:08:10.484Z,95.50
2018-04-14T00:09:10.477Z,97.50
2018-04-14T00:10:10.503Z,93.30
2018-04-14T00:11:10.472Z,93.50
2018-04-14T00:12:10.452Z,98.50
2018-04-14T00:13:10.447Z,94.60
2018-04-14T00:14:10.441Z,98.40
2018-04-14T00:15:10.432Z,90.10
2018-04-14T00:16:10.427Z,97.90
2018-04-14T00:17:10.419Z,96.60
2018-04-14T00:18:10.409Z,100.80
2018-04-14T00:19:10.405Z,95.90
2018-04-14T00:20:10.395Z,97.90
2018-04-14T00:21:10.388Z,97.20
2018-04-14T00:22:10.422Z,98.50
2018-04-14T00:23:10.374Z,96.60
2018-04-14T00:24:10.370Z,94.30
2018-04-14T00:25:10.363Z,97.40
2018-04-14T00:26:10.354Z,97.90
2018-04-14T00:27:10.341Z,99.10
2018-04-14T00:28:10.336Z,98.40
2018-04-14T00:29:10.332Z,95.80
2018-04-14T00:30:10.322Z,98.30
2018-04-14T00:31:10.315Z,97.00
2018-04-14T00:32:10.309Z,94.70
2018-04-14T00:33:10.308Z,100.90
2018-04-14T00:34:10.292Z,96.80
2018-04-14T00:35:10.290Z,97.30
2018-04-14T00:36:10.279Z,92.30
2018-04-14T00:37:10.272Z,95.90
2018-04-14T00:38:10.265Z,98.50
2018-04-14T00:39:10.260Z,97.80
2018-04-14T00:40:10.247Z,96.50
2018-04-14T00:41:10.245Z,99.40
2018-04-14T00:42:10.236Z,100.10
2018-04-14T00:43:10.228Z,100.50
2018-04-14T00:44:10.220Z,96.90
2018-04-14T00:45:10.216Z,97.40
2018-04-14T00:46:10.203Z,99.20
2018-04-14T00:47:10.197Z,98.60
2018-04-14T00:48:10.193Z,94.00
2018-04-14T00:49:10.186Z,99.00
2018-04-14T00:50:10.178Z,93.00
2018-04-14T00:51:10.168Z,94.60
2018-04-14T00:52:10.165Z,93.90
2018-04-14T00:53:10.150Z,95.40
2018-04-14T00:54:10.144Z,96.20
2018-04-14T00:55:10.140Z,101.50
2018-04-14T00:56:10.133Z,92.20
2018-04-14T00:57:10.127Z,96.00
2018-04-14T00:58:10.118Z,96.40
2018-04-14T00:59:10.111Z,93.60
2018-04-14T01:00:10.109Z,95.40
2018-04-14T01:01:10.095Z,94.50
2018-04-14T01:02:10.085Z,93.20
2018-04-14T01:03:10.080Z,94.40
2018-04-14T01:04:10.077Z,94.70
2018-04-14T01:05:10.068Z,98.30
2018-04-14T01:06:10.066Z,94.80
2018-04-14T01:07:10.050Z,96.50
2018-04-14T01:08:10.044Z,95.40
2018-04-14T01:09:10.037Z,94.20
2018-04-14T01:10:10.032Z,93.80
2018-04-14T01:11:10.027Z,90.40
2018-04-14T01:12:10.019Z,95.90
2018-04-14T01:13:10.012Z,95.10
2018-04-14T01:14:10.000Z,100.40
2018-04-14T01:15:09.995Z,94.30
2018-04-14T01:16:09.992Z,91.40
2018-04-14T01:17:09.984Z,91.80
2018-04-14T01:18:09.976Z,88.00
2018-04-14T01:19:09.970Z,95.50
2018-04-14T01:20:09.963Z,89.90
2018-04-14T01:21:09.953Z,89.10
2018-04-14T01:22:09.945Z,88.30
2018-04-14T01:23:09.942Z,92.20
2018-04-14T01:24:09.933Z,87.70
2018-04-14T01:25:09.925Z,87.00
2018-04-14T01:26:09.919Z,87.50
2018-04-14T01:27:09.909Z,84.80
2018-04-14T01:28:09.901Z,85.40
2018-04-14T01:29:09.892Z,86.60
2018-04-14T01:30:09.885Z,88.00
2018-04-14T01:31:09.879Z,89.80
2018-04-14T01:32:09.875Z,88.60
2018-04-14T01:33:09.865Z,86.50
2018-04-14T01:34:09.860Z,86.90
2018-04-14T01:35:09.852Z,92.20
2018-04-14T01:36:09.842Z,86.70
2018-04-14T01:37:09.835Z,89.10
2018-04-14T01:38:09.832Z,89.90
2018-04-14T01:39:09.825Z,88.30
2018-04-14T01:40:09.816Z,90.10
2018-04-14T01:41:09.809Z,87.90
2018-04-14T01:42:09.798Z,91.60
2018-04-14T01:43:09.791Z,93.30
2018-04-14T01:44:09.790Z,89.80
2018-04-14T01:45:09.780Z,87.30
2018-04-14T01:46:09.780Z,88.60
2018-04-14T01:47:09.765Z,88.80
2018-04-14T01:48:09.786Z,86.70
2018-04-14T01:49:09.752Z,88.50
2018-04-14T01:50:09.739Z,87.10
2018-04-14T01:51:09.733Z,89.50
2018-04-14T01:52:09.729Z,89.10
2018-04-14T01:53:09.722Z,89.60
2018-04-14T01:54:09.712Z,87.40
2018-04-14T01:55:09.704Z,88.50
2018-04-14T01:56:09.696Z,84.20
2018-04-14T01:57:09.690Z,80.30
2018-04-14T01:58:09.692Z,90.40
2018-04-14T01:59:09.676Z,85.50
2018-04-14T02:00:09.672Z,89.60
2018-04-14T02:01:09.663Z,82.80
2018-04-14T02:02:09.656Z,81.40
2018-04-14T02:03:09.650Z,84.80
2018-04-14T02:04:09.637Z,84.80
2018-04-14T02:05:09.636Z,84.20
2018-04-14T02:06:09.628Z,82.70
2018-04-14T02:07:09.619Z,82.60
2018-04-14T02:08:09.613Z,78.10
2018-04-14T02:09:09.603Z,81.20
2018-04-14T02:10:09.594Z,84.40
2018-04-14T02:11:09.590Z,79.40
2018-04-14T02:12:09.581Z,76.80
2018-04-14T02:13:09.577Z,80.30
2018-04-14T02:14:09.571Z,76.60
2018-04-14T02:15:09.561Z,81.20
2018-04-14T02:16:09.551Z,80.70
2018-04-14T02:17:09.542Z,76.40
2018-04-14T02:18:09.538Z,73.20
2018-04-14T02:19:09.531Z,76.80
2018-04-14T02:20:09.523Z,76.30
2018-04-14T02:21:09.518Z,74.70
2018-04-14T02:22:09.509Z,74.80
2018-04-14T02:23:09.501Z,71.30
2018-04-14T02:24:09.491Z,74.20
2018-04-14T02:25:09.488Z,73.20
2018-04-14T02:26:09.479Z,75.20
2018-04-14T02:27:09.473Z,74.20
2018-04-14T02:28:09.465Z,71.70
2018-04-14T02:29:09.459Z,74.00
2018-04-14T02:30:09.448Z,70.30
2018-04-14T02:31:09.442Z,67.60
2018-04-14T02:32:09.436Z,67.80
2018-04-14T02:33:09.430Z,70.90
2018-04-14T02:34:09.423Z,65.60
2018-04-14T02:35:09.415Z,65.30
2018-04-14T02:36:09.408Z,65.90
2018-04-14T02:37:09.396Z,66.20
2018-04-14T02:38:09.392Z,62.50
2018-04-14T02:39:09.383Z,64.70
2018-04-14T02:40:09.379Z,65.00
2018-04-14T02:41:09.373Z,60.50
2018-04-14T02:42:09.366Z,61.50
2018-04-14T02:43:09.356Z,55.80
2018-04-14T02:44:09.346Z,56.70
2018-04-14T02:45:09.339Z,57.00
2018-04-14T02:46:09.338Z,54.90
2018-04-14T02:47:09.325Z,56.00
2018-04-14T02:48:09.321Z,55.50
2018-04-14T02:49:09.318Z,55.50
2018-04-14T02:50:09.304Z,53.80
2018-04-14T02:51:09.304Z,55.70
2018-04-14T02:52:09.289Z,52.70
2018-04-14T02:53:09.287Z,52.60
2018-04-14T02:54:09.276Z,53.30
2018-04-14T02:55:09.269Z,54.90
2018-04-14T02:56:09.262Z,51.50
2018-04-14T02:57:09.280Z,53.00
2018-04-14T02:58:09.244Z,52.00
2018-04-14T02:59:09.236Z,52.30
2018-04-14T03:00:09.229Z,51.60
2018-04-14T03:01:09.226Z,53.70
2018-04-14T03:02:09.219Z,53.20
2018-04-14T03:03:09.214Z,52.60
2018-04-14T03:04:09.204Z,50.50
2018-04-14T03:05:09.193Z,55.20
2018-04-14T03:06:09.184Z,55.80
2018-04-14T03:07:09.178Z,55.30
2018-04-14T03:08:09.172Z,53.00
2018-04-14T03:09:09.167Z,54.10
2018-04-14T03:10:09.159Z,54.80
2018-04-14T03:11:09.150Z,53.40
2018-04-14T03:12:09.142Z,55.20
2018-04-14T03:13:09.134Z,54.30
2018-04-14T03:14:09.125Z,54.90
2018-04-14T03:15:09.117Z,57.00
2018-04-14T03:16:09.112Z,53.30
2018-04-14T03:17:09.105Z,57.00
2018-04-14T03:18:09.096Z,55.20
2018-04-14T03:19:09.090Z,55.30
2018-04-14T03:20:09.083Z,51.80
2018-04-14T03:21:09.075Z,53.30
2018-04-14T03:22:09.069Z,58.50
2018-04-14T03:23:09.063Z,54.90
2018-04-14T03:24:09.051Z,58.10
2018-04-14T03:25:09.049Z,56.70
2018-04-14T03:26:09.035Z,53.40
2018-04-14T03:27:09.029Z,63.30
2018-04-14T03:28:09.024Z,58.10
2018-04-14T03:29:09.012Z,54.90
2018-04-14T03:30:09.009Z,61.10
2018-04-14T03:31:09.004Z,59.40
2018-04-14T03:32:08.995Z,59.20
2018-04-14T03:33:08.987Z,56.80
2018-04-14T03:34:08.976Z,54.00
2018-04-14T03:35:08.971Z,60.80
2018-04-14T03:36:08.959Z,54.50
2018-04-14T03:37:08.957Z,56.10
2018-04-14T03:38:08.950Z,62.00
2018-04-14T03:39:08.944Z,59.20
2018-04-14T03:40:08.934Z,60.00
2018-04-14T03:41:08.927Z,56.60
2018-04-14T03:42:08.921Z,57.90
2018-04-14T03:43:08.909Z,59.10
2018-04-14T03:44:08.906Z,57.90
2018-04-14T03:45:08.897Z,58.50
2018-04-14T03:46:08.895Z,58.50
2018-04-14T03:47:08.882Z,59.10
2018-04-14T03:48:08.887Z,57.80
2018-04-14T03:49:08.866Z,57.30
2018-04-14T03:50:08.863Z,55.30
2018-04-14T03:51:08.852Z,68.20
2018-04-14T03:52:08.847Z,56.20
2018-04-14T03:53:08.842Z,59.20
2018-04-14T03:54:08.833Z,57.70
2018-04-14T03:55:08.827Z,55.60
2018-04-14T03:56:08.821Z,61.40
2018-04-14T03:57:08.806Z,59.50
2018-04-14T03:58:08.804Z,56.40
2018-04-14T03:59:08.796Z,60.30
2018-04-14T04:00:08.787Z,60.90
2018-04-14T04:01:08.792Z,60.60
2018-04-14T04:02:08.770Z,61.30
2018-04-14T04:03:08.773Z,60.70
2018-04-14T04:04:08.760Z,61.00
2018-04-14T04:05:08.752Z,59.50
2018-04-14T04:06:08.742Z,63.30
2018-04-14T04:07:08.740Z,61.30
2018-04-14T04:08:08.727Z,60.30
2018-04-14T04:09:08.719Z,56.30
2018-04-14T04:10:08.711Z,62.30
2018-04-14T04:11:08.708Z,62.60
2018-04-14T04:12:08.702Z,59.00
2018-04-14T04:13:08.694Z,59.00
2018-04-14T04:14:08.683Z,61.00
2018-04-14T04:15:08.674Z,60.30
2018-04-14T04:16:08.667Z,60.50
2018-04-14T04:17:08.663Z,63.30
2018-04-14T04:18:08.657Z,62.60
2018-04-14T04:19:08.647Z,57.30
2018-04-14T04:20:08.641Z,60.20
2018-04-14T04:21:08.630Z,60.00
2018-04-14T04:22:08.624Z,61.40
2018-04-14T04:23:08.615Z,61.30
2018-04-14T04:24:08.611Z,62.90
2018-04-14T04:25:08.604Z,65.20
2018-04-14T04:26:08.598Z,61.00
2018-04-14T04:27:08.589Z,63.80
2018-04-14T04:28:08.630Z,62.50
2018-04-14T04:29:08.579Z,62.40
2018-04-14T04:30:08.568Z,60.80
2018-04-14T04:31:08.557Z,64.50
2018-04-14T04:32:08.604Z,60.70
2018-04-14T04:33:08.549Z,60.20
2018-04-14T04:34:08.536Z,61.90
2018-04-14T04:35:08.530Z,56.00
2018-04-14T04:36:08.525Z,60.50
2018-04-14T04:37:08.515Z,64.60
2018-04-14T04:38:08.504Z,63.40
2018-04-14T04:39:08.503Z,61.00
2018-04-14T04:40:08.493Z,59.70
2018-04-14T04:41:08.486Z,62.90
2018-04-14T04:42:08.481Z,63.10
2018-04-14T04:43:08.472Z,63.20
2018-04-14T04:44:08.462Z,67.10
2018-04-14T04:45:08.457Z,64.30
2018-04-14T04:46:08.445Z,60.30
2018-04-14T04:47:08.442Z,65.00
2018-04-14T04:48:08.434Z,61.80
2018-04-14T04:49:08.428Z,64.90
2018-04-14T04:50:08.431Z,67.40
2018-04-14T04:51:08.413Z,60.20
2018-04-14T04:52:08.403Z,66.70
2018-04-14T04:53:08.395Z,64.30
2018-04-14T04:54:08.391Z,66.90
2018-04-14T04:55:08.383Z,64.90
2018-04-14T04:56:08.376Z,66.50
2018-04-14T04:57:08.370Z,62.90
2018-04-14T04:58:08.362Z,68.50
2018-04-14T04:59:08.353Z,64.10
2018-04-14T05:00:08.340Z,68.60
2018-04-14T05:01:08.338Z,68.60
2018-04-14T05:02:08.331Z,66.70
2018-04-14T05:03:08.323Z,68.20
2018-04-14T05:04:08.318Z,65.50
2018-04-14T05:05:08.308Z,63.80
2018-04-14T05:06:08.296Z,65.90
2018-04-14T05:07:08.292Z,64.60
2018-04-14T05:08:08.288Z,66.10
2018-04-14T05:09:08.278Z,66.40
2018-04-14T05:10:08.271Z,72.40
2018-04-14T05:11:08.260Z,65.20
2018-04-14T05:12:08.253Z,65.40
2018-04-14T05:13:08.245Z,66.90
2018-04-14T05:14:08.237Z,67.60
2018-04-14T05:15:08.235Z,69.30
2018-04-14T05:16:08.225Z,69.70
2018-04-14T05:17:08.218Z,64.20
2018-04-14T05:18:08.209Z,70.70
2018-04-14T05:19:08.198Z,64.10
2018-04-14T05:20:08.197Z,66.30
2018-04-14T05:21:08.183Z,66.70
2018-04-14T05:22:08.181Z,64.60
2018-04-14T05:23:08.174Z,65.00
2018-04-14T05:24:08.188Z,64.50
2018-04-14T05:25:08.155Z,66.90
2018-04-14T05:26:08.146Z,69.30
2018-04-14T05:27:08.140Z,66.10
2018-04-14T05:28:08.129Z,65.30
2018-04-14T05:29:08.127Z,67.00
2018-04-14T05:30:08.118Z,67.80
2018-04-14T05:31:08.111Z,70.20
2018-04-14T05:32:08.100Z,65.70
2018-04-14T05:33:08.093Z,62.20
2018-04-14T05:34:08.086Z,67.90
2018-04-14T05:35:08.076Z,66.10
2018-04-14T05:36:08.074Z,61.30
2018-04-14T05:37:08.064Z,67.00
2018-04-14T05:38:08.057Z,64.90
2018-04-14T05:39:08.049Z,65.90
2018-04-14T05:40:08.040Z,65.30
2018-04-14T05:41:08.032Z,59.70
2018-04-14T05:42:08.023Z,65.00
2018-04-14T05:43:08.022Z,65.60
2018-04-14T05:44:08.011Z,61.10
2018-04-14T05:45:08.002Z,64.00
2018-04-14T05:46:07.992Z,64.60
2018-04-14T05:47:07.990Z,62.40
2018-04-14T05:48:07.980Z,57.10
2018-04-14T05:49:07.971Z,59.30
2018-04-14T05:50:07.966Z,60.90
2018-04-14T05:51:07.960Z,59.20
2018-04-14T05:52:07.949Z,57.60
2018-04-14T05:53:07.942Z,58.00
2018-04-14T05:54:07.930Z,57.50
2018-04-14T05:55:07.922Z,55.10
2018-04-14T05:56:07.917Z,60.40
2018-04-14T05:57:07.911Z,56.50
2018-04-14T05:58:07.905Z,58.00
2018-04-14T05:59:07.896Z,56.70
2018-04-14T06:00:07.926Z,57.60
2018-04-14T06:01:07.878Z,57.40
2018-04-14T06:02:07.870Z,58.80
2018-04-14T06:03:07.862Z,59.10
2018-04-14T06:04:07.858Z,60.80
2018-04-14T06:05:07.849Z,57.60
2018-04-14T06:06:07.841Z,55.30
2018-04-14T06:07:07.829Z,56.70
2018-04-14T06:08:07.825Z,56.00
2018-04-14T06:09:07.883Z,58.20
2018-04-14T06:10:07.807Z,55.20
2018-04-14T06:11:07.807Z,56.40
2018-04-14T06:12:07.796Z,54.20
2018-04-14T06:13:07.791Z,55.10
2018-04-14T06:14:07.777Z,54.90
2018-04-14T06:15:07.771Z,59.00
2018-04-14T06:16:07.798Z,56.50
2018-04-14T06:17:07.757Z,59.60
2018-04-14T06:18:07.749Z,53.70
2018-04-14T06:19:07.748Z,55.30
2018-04-14T06:20:07.740Z,61.20
2018-04-14T06:21:07.726Z,54.60
2018-04-14T06:22:07.785Z,56.80
2018-04-14T06:23:07.709Z,56.90
2018-04-14T06:24:07.704Z,57.20
2018-04-14T06:25:07.702Z,57.10
2018-04-14T06:26:07.691Z,55.80
2018-04-14T06:27:07.682Z,54.30
2018-04-14T06:28:07.673Z,57.00
2018-04-14T06:29:07.669Z,55.80
2018-04-14T06:30:07.659Z,52.80
2018-04-14T06:31:07.654Z,54.60
2018-04-14T06:32:07.645Z,54.00
2018-04-14T06:33:07.640Z,55.10
2018-04-14T06:34:07.643Z,51.90
2018-04-14T06:35:07.622Z,54.50
2018-04-14T06:36:07.614Z,58.50
2018-04-14T06:37:07.609Z,54.90
2018-04-14T06:38:07.602Z,55.00
2018-04-14T06:39:07.595Z,54.60
2018-04-14T06:40:07.588Z,55.10
2018-04-14T06:41:07.582Z,56.70
2018-04-14T06:42:07.573Z,54.70
2018-04-14T06:43:07.565Z,54.00
2018-04-14T06:44:07.581Z,53.60
2018-04-14T06:45:07.551Z,56.90
2018-04-14T06:46:07.544Z,53.10
2018-04-14T06:47:07.537Z,57.70
2018-04-14T06:48:07.530Z,52.30
2018-04-14T06:49:07.519Z,55.10
2018-04-14T06:50:07.515Z,55.00
2018-04-14T06:51:07.507Z,53.10
2018-04-14T06:52:07.503Z,51.70
2018-04-14T06:53:07.496Z,46.80
2018-04-14T06:54:07.489Z,48.40
2018-04-14T06:55:07.480Z,51.30
2018-04-14T06:56:07.472Z,50.40
2018-04-14T06:57:07.467Z,48.70
2018-04-14T06:58:07.461Z,52.50
2018-04-14T06:59:07.455Z,49.50
2018-04-14T07:00:07.450Z,48.10
2018-04-14T07:01:07.440Z,46.90
2018-04-14T07:02:07.433Z,47.20
2018-04-14T07:03:07.428Z,49.80
2018-04-14T07:04:07.421Z,50.90
2018-04-14T07:05:07.415Z,48.10
2018-04-14T07:06:07.413Z,50.10
2018-04-14T07:07:07.404Z,48.50
2018-04-14T07:08:07.400Z,49.70
2018-04-14T07:09:07.392Z,48.20
2018-04-14T07:10:07.388Z,46.80
2018-04-14T07:11:07.377Z,45.90
2018-04-14T07:12:07.373Z,46.10
2018-04-14T07:13:07.368Z,48.10
2018-04-14T07:14:07.361Z,48.50
2018-04-14T07:15:07.355Z,48.00
2018-04-14T07:16:07.348Z,48.30
2018-04-14T07:17:07.344Z,43.10
2018-04-14T07:18:07.335Z,45.80
2018-04-14T07:19:07.329Z,45.20
2018-04-14T07:20:07.326Z,43.20
2018-04-14T07:21:07.320Z,46.50
2018-04-14T07:22:07.312Z,45.60
2018-04-14T07:23:07.308Z,43.10
2018-04-14T07:24:07.298Z,43.40
2018-04-14T07:25:07.299Z,45.50
2018-04-14T07:26:07.288Z,44.50
2018-04-14T07:27:07.285Z,46.10
2018-04-14T07:28:07.283Z,46.60
2018-04-14T07:29:07.275Z,43.70
2018-04-14T07:30:07.268Z,46.50
2018-04-14T07:31:07.260Z,43.90
2018-04-14T07:32:07.257Z,41.90
2018-04-14T07:33:07.253Z,44.50
2018-04-14T07:34:07.245Z,43.30
2018-04-14T07:35:07.245Z,44.50
2018-04-14T07:36:07.237Z,43.10
2018-04-14T07:37:07.229Z,42.80
2018-04-14T07:38:07.224Z,43.40
2018-04-14T07:39:07.219Z,43.80
2018-04-14T07:40:07.215Z,47.10
2018-04-14T07:41:07.212Z,44.70
2018-04-14T07:42:07.203Z,46.00
2018-04-14T07:43:07.201Z,44.20
2018-04-14T07:44:07.197Z,43.50
2018-04-14T07:45:07.194Z,45.20
2018-04-14T07:46:07.184Z,43.90
2018-04-14T07:47:07.180Z,43.30
2018-04-14T07:48:07.176Z,43.70
2018-04-14T07:49:07.173Z,45.00
2018-04-14T07:50:07.163Z,45.50
2018-04-14T07:51:07.163Z,43.40
2018-04-14T07:52:07.153Z,44.50
2018-04-14T07:53:07.152Z,43.60
2018-04-14T07:54:07.148Z,44.20
2018-04-14T07:55:07.145Z,45.20
2018-04-14T07:56:07.141Z,44.90
2018-04-14T07:57:07.135Z,44.20
2018-04-14T07:58:07.129Z,41.70
2018-04-14T07:59:07.119Z,45.60
2018-04-14T08:00:07.117Z,43.70
2018-04-14T08:01:07.115Z,45.00
2018-04-14T08:02:07.110Z,44.70
2018-04-14T08:03:07.105Z,44.50
2018-04-14T08:04:07.096Z,46.10
2018-04-14T08:05:07.093Z,45.60
2018-04-14T08:06:07.083Z,42.80
2018-04-14T08:07:07.088Z,44.50
2018-04-14T08:08:07.085Z,44.40
2018-04-14T08:09:07.074Z,43.20
2018-04-14T08:10:07.068Z,43.40
2018-04-14T08:11:07.067Z,46.40
2018-04-14T08:12:07.058Z,46.70
2018-04-14T08:13:07.059Z,45.70
2018-04-14T08:14:07.050Z,46.20
2018-04-14T08:15:07.050Z,44.10
2018-04-14T08:16:07.044Z,41.90
2018-04-14T08:17:07.038Z,41.00
2018-04-14T08:18:07.033Z,40.30
2018-04-14T08:19:07.033Z,41.50
2018-04-14T08:20:07.028Z,43.10
2018-04-14T08:21:07.027Z,41.80
2018-04-14T08:22:07.023Z,41.60
2018-04-14T08:23:07.016Z,41.20
2018-04-14T08:24:07.012Z,40.00
2018-04-14T08:25:07.010Z,40.50
2018-04-14T08:26:07.014Z,41.10
2018-04-14T08:27:07.011Z,42.50
2018-04-14T08:28:07.004Z,41.10
2018-04-14T08:29:07.002Z,39.00
2018-04-14T08:30:07.055Z,43.20
2018-04-14T08:31:06.991Z,43.80
2018-04-14T08:32:06.993Z,39.30
2018-04-14T08:33:06.986Z,46.00
2018-04-14T08:34:06.985Z,44.20
2018-04-14T08:35:06.982Z,41.00
2018-04-14T08:36:06.983Z,41.80
2018-04-14T08:37:06.981Z,41.60
2018-04-14T08:38:06.969Z,44.20
2018-04-14T08:39:06.970Z,40.10
2018-04-14T08:40:06.969Z,40.70
2018-04-14T08:41:06.968Z,43.10
2018-04-14T08:42:06.966Z,41.80
2018-04-14T08:43:06.961Z,42.20
2018-04-14T08:44:06.984Z,40.10
2018-04-14T08:45:06.960Z,42.50
2018-04-14T08:46:06.953Z,43.20
2018-04-14T08:47:06.958Z,42.70
2018-04-14T08:48:06.950Z,43.60
2018-04-14T08:49:06.944Z,45.70
2018-04-14T08:50:06.942Z,42.70
2018-04-14T08:51:06.935Z,43.40
2018-04-14T08:52:06.937Z,46.00
2018-04-14T08:53:06.934Z,45.30
2018-04-14T08:54:06.929Z,44.80
2018-04-14T08:55:06.930Z,45.60
2018-04-14T08:56:06.924Z,44.10
2018-04-14T08:57:06.916Z,44.50
2018-04-14T08:58:06.925Z,44.00
2018-04-14T08:59:06.911Z,45.20
2018-04-14T09:00:06.911Z,44.90
2018-04-14T09:01:06.911Z,45.00
2018-04-14T09:02:06.904Z,47.80
2018-04-14T09:03:06.901Z,44.10
2018-04-14T09:04:06.899Z,46.70
2018-04-14T09:05:06.890Z,46.00
2018-04-14T09:06:06.902Z,45.00
2018-04-14T09:07:06.891Z,46.30
2018-04-14T09:08:06.884Z,44.10
2018-04-14T09:09:06.900Z,45.20
2018-04-14T09:10:06.876Z,48.70
2018-04-14T09:11:06.873Z,44.30
2018-04-14T09:12:06.867Z,44.40
2018-04-14T09:13:06.867Z,44.50
2018-04-14T09:14:06.866Z,45.20
2018-04-14T09:15:06.891Z,44.30
2018-04-14T09:16:06.903Z,47.70
2018-04-14T09:17:06.852Z,45.20
2018-04-14T09:18:06.846Z,45.50
2018-04-14T09:19:06.846Z,46.00
2018-04-14T09:20:06.842Z,45.90
2018-04-14T09:21:06.846Z,45.50
2018-04-14T09:22:06.834Z,46.10
2018-04-14T09:23:06.846Z,43.10
2018-04-14T09:24:06.822Z,44.90
2018-04-14T09:25:06.821Z,45.30
2018-04-14T09:26:06.813Z,45.20
2018-04-14T09:27:06.814Z,45.50
2018-04-14T09:28:06.811Z,42.70
2018-04-14T09:29:06.807Z,43.70
2018-04-14T09:30:06.799Z,42.80
2018-04-14T09:31:06.835Z,42.10
2018-04-14T09:32:06.793Z,42.30
2018-04-14T09:33:06.787Z,41.40
2018-04-14T09:34:06.789Z,44.40
2018-04-14T09:35:06.780Z,43.50
2018-04-14T09:36:06.780Z,44.70
2018-04-14T09:37:06.779Z,41.40
2018-04-14T09:38:06.769Z,41.30
2018-04-14T09:39:06.771Z,39.70
2018-04-14T09:40:06.765Z,40.80
2018-04-14T09:41:06.764Z,39.50
2018-04-14T09:42:06.761Z,41.40
2018-04-14T09:43:06.757Z,42.40
2018-04-14T09:44:06.749Z,41.60
2018-04-14T09:45:06.747Z,41.50
2018-04-14T09:46:06.744Z,43.50
2018-04-14T09:47:06.752Z,42.00
2018-04-14T09:48:06.741Z,41.20
2018-04-14T09:49:06.736Z,39.80
2018-04-14T09:50:06.731Z,42.60
2018-04-14T09:51:06.726Z,41.10
2018-04-14T09:52:06.727Z,42.10
2018-04-14T09:53:06.722Z,40.70
2018-04-14T09:54:06.717Z,40.20
2018-04-14T09:55:06.720Z,43.60
2018-04-14T09:56:06.712Z,40.80
2018-04-14T09:57:06.707Z,40.30
2018-04-14T09:58:06.701Z,41.60
2018-04-14T09:59:06.700Z,41.70
2018-04-14T10:00:06.694Z,40.80
2018-04-14T10:01:06.701Z,40.90
2018-04-14T10:02:06.688Z,42.40
2018-04-14T10:03:06.683Z,43.40
2018-04-14T10:04:06.682Z,40.30
2018-04-14T10:05:06.679Z,43.50
2018-04-14T10:06:06.672Z,40.30
2018-04-14T10:07:06.670Z,43.80
2018-04-14T10:08:06.668Z,41.40
2018-04-14T10:09:06.668Z,40.60
2018-04-14T10:10:06.664Z,41.30
2018-04-14T10:11:06.654Z,41.50
2018-04-14T10:12:06.660Z,42.90
2018-04-14T10:13:06.685Z,42.80
2018-04-14T10:14:06.645Z,40.50
2018-04-14T10:15:06.643Z,41.70
2018-04-14T10:16:06.642Z,45.80
2018-04-14T10:17:06.641Z,42.80
2018-04-14T10:18:06.635Z,42.70
2018-04-14T10:19:06.632Z,42.10
2018-04-14T10:20:06.628Z,42.60
2018-04-14T10:21:06.629Z,43.60
2018-04-14T10:22:06.625Z,42.70
2018-04-14T10:23:06.620Z,43.30
2018-04-14T10:24:06.621Z,44.20
2018-04-14T10:25:06.609Z,40.00
2018-04-14T10:26:06.607Z,40.10
2018-04-14T10:27:06.612Z,43.40
2018-04-14T10:28:06.601Z,41.10
2018-04-14T10:29:06.606Z,40.00
2018-04-14T10:30:06.597Z,40.70
2018-04-14T10:31:06.595Z,38.50
2018-04-14T10:32:06.586Z,39.40
2018-04-14T10:33:06.629Z,40.40
2018-04-14T10:34:06.579Z,39.90
2018-04-14T10:35:06.581Z,39.40
2018-04-14T10:36:06.579Z,38.40
2018-04-14T10:37:06.574Z,39.90
2018-04-14T10:38:06.685Z,39.50
2018-04-14T10:39:06.567Z,41.50
2018-04-14T10:40:06.574Z,41.30
2018-04-14T10:41:06.558Z,41.40
2018-04-14T10:42:06.558Z,39.60
2018-04-14T10:43:06.556Z,39.70
2018-04-14T10:44:06.552Z,39.50
2018-04-14T10:45:06.546Z,40.00
2018-04-14T10:46:06.545Z,39.20
2018-04-14T10:47:06.544Z,41.00
2018-04-14T10:48:06.541Z,42.10
2018-04-14T10:49:06.538Z,39.50
2018-04-14T10:50:06.581Z,39.20
2018-04-14T10:51:06.534Z,39.20
2018-04-14T10:52:06.534Z,42.20
2018-04-14T10:53:06.526Z,39.80
2018-04-14T10:54:06.522Z,41.00
2018-04-14T10:55:06.528Z,39.50
2018-04-14T10:56:06.520Z,39.90
2018-04-14T10:57:06.521Z,40.90
2018-04-14T10:58:06.513Z,42.00
2018-04-14T10:59:06.508Z,40.40
2018-04-14T11:00:06.505Z,38.70
2018-04-14T11:01:06.505Z,44.00
2018-04-14T11:02:06.506Z,43.00
2018-04-14T11:03:06.502Z,41.30
2018-04-14T11:04:06.501Z,40.30
2018-04-14T11:05:06.502Z,43.50
2018-04-14T11:06:06.493Z,40.80
2018-04-14T11:07:06.496Z,40.70
2018-04-14T11:08:06.489Z,43.90
2018-04-14T11:09:06.492Z,40.60
2018-04-14T11:10:06.487Z,41.50
2018-04-14T11:11:06.489Z,41.30
2018-04-14T11:12:06.483Z,38.60
2018-04-14T11:13:06.480Z,41.40
2018-04-14T11:14:06.480Z,40.80
2018-04-14T11:15:06.477Z,41.50
2018-04-14T11:16:06.477Z,39.20
2018-04-14T11:17:06.475Z,40.00
2018-04-14T11:18:06.475Z,41.30
2018-04-14T11:19:06.468Z,42.10
2018-04-14T11:20:06.465Z,39.60
2018-04-14T11:21:06.466Z,40.90
2018-04-14T11:22:06.466Z,41.00
2018-04-14T11:23:06.473Z,41.10
2018-04-14T11:24:06.470Z,41.60
2018-04-14T11:25:06.462Z,42.00
2018-04-14T11:26:06.465Z,41.70
2018-04-14T11:27:06.466Z,41.10
2018-04-14T11:28:06.454Z,42.10
2018-04-14T11:29:06.455Z,41.20
2018-04-14T11:30:06.455Z,44.00
2018-04-14T11:31:06.452Z,41.70
2018-04-14T11:32:06.448Z,38.90
2018-04-14T11:33:06.446Z,40.90
2018-04-14T11:34:06.443Z,39.70
2018-04-14T11:35:06.445Z,42.40
2018-04-14T11:36:06.444Z,39.40
2018-04-14T11:37:06.449Z,41.30
2018-04-14T11:38:06.442Z,42.10
2018-04-14T11:39:06.442Z,42.10
2018-04-14T11:40:06.442Z,41.30
2018-04-14T11:41:06.436Z,40.80
2018-04-14T11:42:06.431Z,42.00
2018-04-14T11:43:06.432Z,41.40
2018-04-14T11:44:06.439Z,42.90
2018-04-14T11:45:06.433Z,42.40
2018-04-14T11:46:06.428Z,40.70
2018-04-14T11:47:06.425Z,41.10
2018-04-14T11:48:06.424Z,39.90
2018-04-14T11:49:06.424Z,39.60
2018-04-14T11:50:06.426Z,40.70
2018-04-14T11:51:06.423Z,40.40
2018-04-14T11:52:06.424Z,39.50
2018-04-14T11:53:06.431Z,38.30
2018-04-14T11:54:06.417Z,38.10
2018-04-14T11:55:06.416Z,38.70
2018-04-14T11:56:06.417Z,40.30
2018-04-14T11:57:06.421Z,38.60
2018-04-14T11:58:06.414Z,40.30
2018-04-14T11:59:06.421Z,38.80
2018-04-14T12:00:06.415Z,39.60
2018-04-14T12:01:06.415Z,37.10
2018-04-14T12:02:06.414Z,38.10
2018-04-14T12:03:06.414Z,37.50
2018-04-14T12:04:06.417Z,36.70
2018-04-14T12:05:06.419Z,36.40
2018-04-14T12:06:06.422Z,36.70
2018-04-14T12:07:06.418Z,38.30
2018-04-14T12:08:06.426Z,35.50
2018-04-14T12:09:06.419Z,36.10
2018-04-14T12:10:06.423Z,35.90
2018-04-14T12:11:06.426Z,35.90
2018-04-14T12:12:06.433Z,35.50
2018-04-14T12:13:06.435Z,36.60
2018-04-14T12:14:06.428Z,35.20
2018-04-14T12:15:06.429Z,35.70
2018-04-14T12:16:06.435Z,35.10
2018-04-14T12:17:06.441Z,37.00
2018-04-14T12:18:06.440Z,37.70
2018-04-14T12:19:06.445Z,37.30
2018-04-14T12:20:06.499Z,38.60
2018-04-14T12:21:06.448Z,38.20
2018-04-14T12:22:06.449Z,37.90
2018-04-14T12:23:06.457Z,37.20
2018-04-14T12:24:06.460Z,38.00
2018-04-14T12:25:06.470Z,38.40
2018-04-14T12:26:06.463Z,37.30
2018-04-14T12:27:06.464Z,38.00
2018-04-14T12:28:06.469Z,38.30
2018-04-14T12:29:06.473Z,37.60
2018-04-14T12:30:06.503Z,38.50
2018-04-14T12:31:06.482Z,37.90
2018-04-14T12:32:06.486Z,37.10
2018-04-14T12:33:06.489Z,38.00
2018-04-14T12:34:06.489Z,36.40
2018-04-14T12:35:06.489Z,37.40
2018-04-14T12:36:06.494Z,37.70
2018-04-14T12:37:06.523Z,38.40
2018-04-14T12:38:06.507Z,36.90
2018-04-14T12:39:06.509Z,37.80
2018-04-14T12:40:06.516Z,38.10
2018-04-14T12:41:06.513Z,38.20
2018-04-14T12:42:06.514Z,37.60
2018-04-14T12:43:06.515Z,37.80
2018-04-14T12:44:06.520Z,38.20
2018-04-14T12:45:06.535Z,38.50
2018-04-14T12:46:06.526Z,38.60
2018-04-14T12:47:06.530Z,38.10
2018-04-14T12:48:06.526Z,40.10
2018-04-14T12:49:06.526Z,40.50
2018-04-14T12:50:06.529Z,40.40
2018-04-14T12:51:06.534Z,38.90
2018-04-14T12:52:06.536Z,38.80